Kittery, ME (03904)

3:47 PM EDT on August 30, 2014 (GMT -0400)
KMEKITTE4 | Change Station
CLOSE
Current Station
Personal Weather Station
Location: Kittery, ME
Elevation: 59 ft
Nearby Weather Stations

Elev 59 ft 43.09 °N, 70.73 °W | Updated 12 seconds ago

Scattered Clouds
Scattered Clouds
69.1 °F
Feels Like 69.1 °F
N
1.0
Wind Variable Wind from South
Gusts 0.0 mph

Today
High -- | Low -- °F
--% Chance of Precip.
Yesterday
High -- | Low -- °F
Precip. -- in
6:05 AM 7:21 PM
Waxing Crescent, 24% visible
Pressure 30.19 in
Visibility 10.0 miles
Clouds Few 4500 ft
Scattered Clouds 25000 ft
Dew Point 50 °F
Humidity 51%
Rainfall 0.00 in
Snow Depth Not available.
UV 5 out of 12
Pollen 7.30 out of 12
Ozone Good
Flu Activity Not available.
METAR KPSM 301858Z 15013KT 10SM FEW045 SCT250 23/15 A3018 RMK AO2A SLP223 T02270146

More Conditions Fewer Conditions

Pressure 30.19 in
Visibility 10.0 miles
Clouds Few 4500 ft
Scattered Clouds 25000 ft
Dew Point 50 °F
Humidity 51%
Rainfall 0.00 in
Snow Depth Not available.
UV 5 out of 12
Pollen 7.30 out of 12
Ozone Good
Flu Activity Not available.
METAR KPSM 301858Z 15013KT 10SM FEW045 SCT250 23/15 A3018 RMK AO2A SLP223 T02270146

More Conditions Fewer Conditions

10-Day Weather Forecast

Almanac

Astronomy

Aug. 30, 2014 Rise Set
Actual Time 6:05 AM EDT 7:21 PM EDT
Civil Twilight 5:35 AM EDT 7:50 PM EDT
Nautical Twilight 5:00 AM EDT 8:25 PM EDT
Astronomical Twilight 4:22 AM EDT 9:02 PM EDT
Moon 10:57 AM EDT 9:44 PM EDT
Length of Visible Light 14h 14m
Length of Day
13h 16m
Tomorrow will be 2m 47s shorter.
Waxing Crescent, 24% of the Moon is Illuminated
Today
Waxing Crescent
Sep 2
First Quarter
Sep 8
Full
Sep 15
Last Quarter
Sep 24
New

Today's Extremes

State Highs State Lows

Community

WunderPhotos

Upload Photos

1,748,614 photos uploaded!

WunderBlogs® & News

Nearby

Air Quality

  Air Quality AQ Index Pollutant
Yesterday Good
OZONE
Current Good
OZONE
Saturday Good
OZONE
Saturday Good
PM2.5
Sunday Good
OZONE
Sunday Good
PM2.5
Monday Good
OZONE
Monday Good
PM2.5
Tuesday Good
OZONE
Tuesday Good
PM2.5
Wednesday Good
OZONE
Wednesday Good
PM2.5

Snow Depth

Station Depth Elevation
No new snow has been reported.

Earthquake Activity

City Distance Mag. Time & Date
No recent earthquake activity has been reported nearby.
Minimum magnitude displayed is 2.5.

Coastal Water Temperatures

Place Temperature
Wells, ME 61.0 °F
Portland, ME 59.0 °F

Nearby Weather Stations